createdAt,value
2023-02-22T00:02:11.188Z,7.72
2023-02-22T00:04:42.189Z,7.40
2023-02-22T00:07:08.853Z,7.32
2023-02-22T00:09:35.943Z,7.13
2023-02-22T00:12:02.863Z,6.68
2023-02-22T00:14:29.505Z,6.30
2023-02-22T00:16:59.402Z,6.07
2023-02-22T00:19:28.039Z,7.50
2023-02-22T00:21:54.865Z,9.05
2023-02-22T00:24:24.367Z,8.38
2023-02-22T00:26:57.979Z,5.95
2023-02-22T00:29:25.412Z,7.75
2023-02-22T00:31:52.454Z,6.20
2023-02-22T00:34:19.385Z,9.32
2023-02-22T00:36:48.255Z,5.47
2023-02-22T00:39:15.772Z,5.57
2023-02-22T00:41:42.977Z,5.90
2023-02-22T00:44:09.773Z,4.80
2023-02-22T00:46:36.702Z,5.88
2023-02-22T00:49:03.686Z,7.95
2023-02-22T00:51:30.252Z,6.63
2023-02-22T00:53:57.280Z,6.22
2023-02-22T00:56:24.186Z,6.55
2023-02-22T00:58:50.826Z,5.65
2023-02-22T01:01:17.934Z,8.07
2023-02-22T01:03:45.397Z,6.28
2023-02-22T01:06:12.811Z,5.55
2023-02-22T01:08:44.650Z,5.07
2023-02-22T01:11:11.861Z,7.00
2023-02-22T01:13:38.622Z,8.00
2023-02-22T01:16:08.399Z,8.63
2023-02-22T01:18:38.089Z,5.30
2023-02-22T01:21:05.017Z,5.30
2023-02-22T01:23:31.808Z,5.65
2023-02-22T01:25:58.904Z,6.03
2023-02-22T01:28:25.630Z,6.18
2023-02-22T01:30:52.693Z,7.32
2023-02-22T01:33:19.418Z,5.47
2023-02-22T01:35:47.014Z,5.35
2023-02-22T01:38:14.470Z,7.10
2023-02-22T01:40:43.737Z,5.63
2023-02-22T01:43:29.810Z,5.43
2023-02-22T01:46:18.992Z,6.35
2023-02-22T01:48:54.575Z,6.28
2023-02-22T01:51:29.472Z,4.53
2023-02-22T01:54:08.404Z,9.20
2023-02-22T01:56:38.871Z,6.57
2023-02-22T01:59:09.440Z,8.38
2023-02-22T02:01:39.451Z,5.32
2023-02-22T02:04:12.229Z,8.45
2023-02-22T02:06:39.860Z,8.52
2023-02-22T02:09:10.902Z,7.05
2023-02-22T02:11:40.442Z,6.22
2023-02-22T02:14:09.849Z,6.45
2023-02-22T02:16:43.471Z,6.63
2023-02-22T02:19:22.379Z,5.78
2023-02-22T02:22:17.951Z,6.07
2023-02-22T02:24:56.122Z,5.68
2023-02-22T02:27:38.321Z,6.55
2023-02-22T02:30:31.430Z,6.70
2023-02-22T02:33:07.307Z,8.43
2023-02-22T02:36:22.799Z,5.65
2023-02-22T02:39:16.313Z,5.75
2023-02-22T02:41:49.276Z,5.32
2023-02-22T02:44:20.260Z,5.93
2023-02-22T02:47:09.160Z,5.78
2023-02-22T02:49:38.781Z,8.10
2023-02-22T02:52:06.681Z,5.13
2023-02-22T02:54:36.880Z,5.90
2023-02-22T02:57:04.428Z,6.75
2023-02-22T02:59:34.341Z,5.78
2023-02-22T03:02:04.027Z,5.22
2023-02-22T03:04:59.993Z,5.20
2023-02-22T03:07:53.991Z,6.13
2023-02-22T03:10:26.629Z,4.32
2023-02-22T03:13:16.265Z,6.38
2023-02-22T03:15:58.149Z,6.03
2023-02-22T03:18:38.349Z,4.18
2023-02-22T03:21:31.620Z,3.80
2023-02-22T03:24:12.083Z,6.75
2023-02-22T03:26:45.268Z,7.00
2023-02-22T03:29:17.688Z,6.18
2023-02-22T03:31:53.522Z,4.03
2023-02-22T03:34:28.563Z,6.15
2023-02-22T03:37:26.881Z,6.85
2023-02-22T03:39:55.349Z,4.57
2023-02-22T03:42:26.660Z,4.97
2023-02-22T03:44:58.005Z,7.40
2023-02-22T03:47:40.000Z,6.43
2023-02-22T03:50:12.727Z,6.13
2023-02-22T03:52:39.388Z,4.80
2023-02-22T03:55:13.018Z,5.90
2023-02-22T03:57:44.814Z,6.82
2023-02-22T04:00:14.825Z,8.05
2023-02-22T04:02:43.739Z,7.45
2023-02-22T04:05:17.145Z,5.45
2023-02-22T04:07:44.262Z,7.00
2023-02-22T04:10:13.925Z,7.43
2023-02-22T04:12:40.929Z,8.38
2023-02-22T04:15:09.764Z,8.05
2023-02-22T04:17:36.781Z,8.95
2023-02-22T04:20:06.197Z,6.05
2023-02-22T04:22:43.971Z,9.25
2023-02-22T04:25:11.166Z,8.35
2023-02-22T04:27:38.210Z,8.30
2023-02-22T04:30:05.926Z,5.57
2023-02-22T04:32:34.297Z,7.57
2023-02-22T04:35:00.966Z,5.90
2023-02-22T04:37:29.385Z,5.15
2023-02-22T04:39:56.290Z,8.57
2023-02-22T04:42:23.126Z,7.40
2023-02-22T04:44:49.802Z,4.75
2023-02-22T04:47:16.434Z,5.45
2023-02-22T04:49:43.640Z,6.43
2023-02-22T04:52:10.232Z,5.95
2023-02-22T04:54:39.013Z,6.43
2023-02-22T04:57:06.243Z,6.32
2023-02-22T04:59:34.064Z,7.35
2023-02-22T05:02:01.776Z,5.25
2023-02-22T05:04:28.598Z,5.22
2023-02-22T05:06:55.327Z,5.32
2023-02-22T05:09:22.342Z,4.90
2023-02-22T05:11:49.443Z,6.78
2023-02-22T05:14:16.395Z,6.15
2023-02-22T05:16:43.091Z,7.50
2023-02-22T05:19:09.719Z,8.68
2023-02-22T05:21:36.611Z,7.05
2023-02-22T05:24:03.268Z,9.90
2023-02-22T05:26:30.011Z,10.70
2023-02-22T05:28:56.751Z,11.38
2023-02-22T05:31:23.500Z,7.43
2023-02-22T05:33:50.237Z,7.80
2023-02-22T05:36:17.108Z,6.82
2023-02-22T05:38:44.908Z,9.15
2023-02-22T05:41:12.931Z,12.05
2023-02-22T05:43:40.399Z,9.95
2023-02-22T05:46:07.770Z,11.60
2023-02-22T05:48:34.417Z,10.40
2023-02-22T05:51:01.083Z,14.10
2023-02-22T05:53:27.828Z,12.73
2023-02-22T05:55:54.579Z,19.85
2023-02-22T05:58:22.454Z,17.75
2023-02-22T06:00:49.133Z,23.55
2023-02-22T06:03:15.880Z,19.75
2023-02-22T06:05:42.660Z,17.42
2023-02-22T06:08:09.735Z,23.02
2023-02-22T06:10:37.161Z,19.73
2023-02-22T06:13:05.895Z,22.10
2023-02-22T06:15:32.640Z,20.38
2023-02-22T06:17:59.332Z,17.95
2023-02-22T06:20:28.713Z,18.17
2023-02-22T06:22:57.726Z,18.95
2023-02-22T06:25:27.547Z,15.38
2023-02-22T06:27:54.598Z,14.75
2023-02-22T06:30:29.720Z,14.73
2023-02-22T06:32:56.791Z,14.73
2023-02-22T06:35:23.812Z,15.50
2023-02-22T06:37:50.710Z,16.52
2023-02-22T06:40:17.554Z,15.85
2023-02-22T06:42:44.204Z,15.73
2023-02-22T06:45:11.094Z,11.85
2023-02-22T06:47:40.375Z,11.70
2023-02-22T06:50:17.416Z,14.13
2023-02-22T06:52:44.169Z,11.18
2023-02-22T06:55:10.837Z,11.07
2023-02-22T06:57:37.451Z,14.60
2023-02-22T07:00:04.849Z,12.30
2023-02-22T07:02:31.505Z,13.73
2023-02-22T07:04:58.198Z,15.10
2023-02-22T07:07:25.363Z,17.70
2023-02-22T07:09:51.975Z,16.58
2023-02-22T07:12:21.284Z,13.50
2023-02-22T07:14:47.860Z,9.38
2023-02-22T07:17:14.957Z,10.50
2023-02-22T07:19:41.536Z,8.63
2023-02-22T07:22:08.182Z,12.77
2023-02-22T07:24:35.136Z,10.73
2023-02-22T07:27:02.617Z,11.70
2023-02-22T07:29:29.420Z,7.00
2023-02-22T07:31:57.750Z,7.93
2023-02-22T07:34:24.504Z,9.32
2023-02-22T07:36:51.132Z,8.88
2023-02-22T07:39:17.764Z,7.45
2023-02-22T07:41:44.354Z,7.63
2023-02-22T07:44:23.753Z,10.50
2023-02-22T07:46:50.421Z,8.57
2023-02-22T07:49:17.975Z,9.82
2023-02-22T07:51:44.596Z,9.90
2023-02-22T07:54:11.177Z,13.50
2023-02-22T07:56:37.808Z,9.88
2023-02-22T07:59:04.512Z,13.00
2023-02-22T08:01:31.951Z,7.63
2023-02-22T08:03:58.606Z,10.30
2023-02-22T08:06:25.983Z,10.57
2023-02-22T08:08:52.601Z,10.05
2023-02-22T08:11:19.504Z,7.53
2023-02-22T08:13:46.252Z,10.73
2023-02-22T08:16:12.998Z,10.65
2023-02-22T08:18:41.072Z,9.93
2023-02-22T08:21:07.758Z,7.53
2023-02-22T08:23:34.440Z,8.57
2023-02-22T08:26:09.689Z,9.43
2023-02-22T08:28:36.424Z,11.57
2023-02-22T08:31:07.753Z,9.65
2023-02-22T08:33:35.520Z,10.77
2023-02-22T08:36:02.200Z,7.88
2023-02-22T08:38:31.069Z,9.00
2023-02-22T08:40:58.144Z,10.02
2023-02-22T08:43:24.898Z,10.80
2023-02-22T08:45:52.463Z,10.70
2023-02-22T08:48:20.099Z,9.18
2023-02-22T08:50:46.838Z,8.52
2023-02-22T08:53:16.293Z,9.68
2023-02-22T08:55:43.315Z,9.60
2023-02-22T08:58:10.257Z,10.00
2023-02-22T09:00:39.155Z,11.77
2023-02-22T09:03:08.876Z,10.38
2023-02-22T09:05:35.837Z,11.55
2023-02-22T09:08:02.874Z,13.93
2023-02-22T09:10:31.987Z,14.63
2023-02-22T09:13:00.854Z,10.77
2023-02-22T09:15:28.571Z,11.13
2023-02-22T09:17:56.091Z,11.32
2023-02-22T09:20:24.730Z,12.90
2023-02-22T09:22:52.986Z,13.27
2023-02-22T09:25:23.093Z,14.13
2023-02-22T09:27:51.896Z,17.90
2023-02-22T09:30:26.962Z,14.80
2023-02-22T09:32:55.793Z,14.23
2023-02-22T09:35:27.246Z,14.00
2023-02-22T09:37:59.246Z,14.13
2023-02-22T09:40:30.185Z,15.73
2023-02-22T09:43:16.926Z,15.55
2023-02-22T09:45:49.466Z,15.05
2023-02-22T09:48:22.101Z,13.10
2023-02-22T09:50:53.788Z,12.88
2023-02-22T09:53:49.812Z,11.60
2023-02-22T09:56:20.828Z,13.98
2023-02-22T09:58:52.319Z,12.00
2023-02-22T10:01:33.191Z,11.03
2023-02-22T10:04:24.731Z,10.95
2023-02-22T10:07:13.348Z,9.37
2023-02-22T10:09:43.491Z,12.93
2023-02-22T10:12:30.093Z,11.40
2023-02-22T10:15:02.684Z,10.07
2023-02-22T10:17:43.688Z,9.30
2023-02-22T10:20:37.182Z,10.77
2023-02-22T10:23:28.874Z,13.38
2023-02-22T10:26:22.468Z,10.50
2023-02-22T10:29:18.944Z,11.35
2023-02-22T10:31:49.054Z,10.63
2023-02-22T10:34:22.068Z,14.02
2023-02-22T10:36:53.938Z,10.60
2023-02-22T10:39:35.143Z,12.40
2023-02-22T10:42:08.313Z,10.85
2023-02-22T10:44:38.960Z,11.00
2023-02-22T10:47:08.297Z,11.55
2023-02-22T10:49:39.166Z,10.77
2023-02-22T10:52:17.288Z,12.98
2023-02-22T10:54:48.348Z,12.27
2023-02-22T10:57:21.107Z,9.60
2023-02-22T10:59:47.837Z,12.95
2023-02-22T11:02:33.887Z,10.75
2023-02-22T11:05:04.155Z,19.63
2023-02-22T11:07:36.339Z,10.80
2023-02-22T11:10:09.487Z,11.63
2023-02-22T11:12:48.509Z,10.68
2023-02-22T11:15:22.312Z,9.70
2023-02-22T11:17:51.689Z,9.57
2023-02-22T11:20:25.327Z,11.43
2023-02-22T11:22:58.470Z,10.00
2023-02-22T11:25:52.793Z,12.55
2023-02-22T11:28:32.943Z,11.52
2023-02-22T11:31:13.175Z,8.70
2023-02-22T11:33:40.115Z,9.23
2023-02-22T11:36:09.350Z,12.55
2023-02-22T11:38:38.880Z,9.65
2023-02-22T11:41:34.986Z,9.57
2023-02-22T11:44:21.155Z,10.05
2023-02-22T11:46:48.240Z,9.25
2023-02-22T11:49:20.147Z,8.68
2023-02-22T11:52:00.208Z,12.40
2023-02-22T11:54:53.289Z,10.77
2023-02-22T11:57:46.757Z,9.80
2023-02-22T12:00:33.472Z,8.75
2023-02-22T12:03:52.615Z,9.70
2023-02-22T12:06:32.435Z,11.85
2023-02-22T12:09:08.249Z,12.63
2023-02-22T12:12:12.108Z,10.00
2023-02-22T12:14:47.583Z,10.45
2023-02-22T12:17:29.356Z,9.20
2023-02-22T12:20:21.590Z,9.73
2023-02-22T12:23:19.612Z,9.95
2023-02-22T12:26:10.771Z,9.27
2023-02-22T12:28:43.833Z,10.35
2023-02-22T12:31:23.581Z,8.80
2023-02-22T12:34:04.843Z,12.80
2023-02-22T12:36:40.206Z,10.45
2023-02-22T12:39:36.095Z,12.70
2023-02-22T12:42:19.012Z,11.48
2023-02-22T12:44:54.588Z,11.88
2023-02-22T12:47:29.119Z,11.48
2023-02-22T12:50:03.305Z,9.82
2023-02-22T12:52:44.707Z,10.50
2023-02-22T12:55:16.124Z,11.73
2023-02-22T12:58:18.391Z,12.23
2023-02-22T13:00:50.987Z,10.52
2023-02-22T13:03:32.827Z,10.27
2023-02-22T13:06:21.440Z,9.48
2023-02-22T13:08:56.978Z,12.27
2023-02-22T13:11:40.512Z,10.00
2023-02-22T13:14:30.152Z,11.57
2023-02-22T13:17:24.137Z,9.60
2023-02-22T13:20:14.925Z,11.52
2023-02-22T13:22:50.348Z,8.48
2023-02-22T13:25:22.938Z,11.30
2023-02-22T13:28:07.489Z,8.45
2023-02-22T13:30:41.947Z,10.95
2023-02-22T13:33:08.556Z,10.20
2023-02-22T13:35:37.727Z,12.13
2023-02-22T13:38:41.731Z,8.48
2023-02-22T13:41:43.394Z,7.75
2023-02-22T13:44:33.801Z,8.90
2023-02-22T13:47:03.376Z,12.98
2023-02-22T13:49:48.248Z,8.82
2023-02-22T13:52:20.159Z,10.00
2023-02-22T13:54:54.454Z,10.48
2023-02-22T13:57:25.243Z,8.70
2023-02-22T14:00:18.295Z,11.95
2023-02-22T14:03:26.339Z,10.23
2023-02-22T14:06:00.883Z,12.93
2023-02-22T14:08:31.360Z,13.00
2023-02-22T14:11:14.166Z,11.40
2023-02-22T14:13:58.028Z,9.45
2023-02-22T14:16:33.896Z,7.70
2023-02-22T14:19:23.422Z,9.15
2023-02-22T14:22:13.006Z,7.53
2023-02-22T14:24:47.552Z,8.13
2023-02-22T14:27:17.545Z,8.60
2023-02-22T14:30:00.367Z,11.45
2023-02-22T14:32:35.467Z,7.97
2023-02-22T14:35:26.559Z,16.67
2023-02-22T14:37:58.573Z,14.07
2023-02-22T14:40:27.776Z,9.15
2023-02-22T14:43:13.382Z,9.57
2023-02-22T14:45:48.565Z,8.90
2023-02-22T14:48:39.536Z,11.60
2023-02-22T14:51:25.818Z,7.70
2023-02-22T14:54:00.269Z,11.13
2023-02-22T14:56:36.328Z,9.23
2023-02-22T14:59:15.349Z,10.77
2023-02-22T15:01:53.152Z,9.18
2023-02-22T15:04:25.724Z,10.98
2023-02-22T15:06:54.399Z,10.65
2023-02-22T15:09:28.772Z,10.90
2023-02-22T15:12:05.292Z,10.00
2023-02-22T15:14:37.998Z,13.77
2023-02-22T15:17:13.880Z,13.52
2023-02-22T15:19:42.238Z,11.40
2023-02-22T15:22:26.590Z,9.02
2023-02-22T15:25:02.849Z,12.75
2023-02-22T15:27:30.083Z,12.00
2023-02-22T15:30:04.770Z,9.60
2023-02-22T15:32:49.957Z,12.40
2023-02-22T15:35:21.249Z,10.20
2023-02-22T15:37:48.116Z,9.85
2023-02-22T15:40:20.901Z,10.93
2023-02-22T15:42:58.394Z,13.25
2023-02-22T15:45:26.251Z,10.88
2023-02-22T15:47:58.737Z,12.85
2023-02-22T15:50:33.353Z,8.95
2023-02-22T15:53:06.745Z,13.05
2023-02-22T15:55:47.202Z,12.30
2023-02-22T15:58:16.990Z,11.65
2023-02-22T16:00:46.954Z,14.32
2023-02-22T16:03:20.383Z,15.93
2023-02-22T16:05:51.226Z,13.63
2023-02-22T16:08:23.216Z,18.35
2023-02-22T16:10:53.389Z,16.40
2023-02-22T16:13:31.622Z,16.55
2023-02-22T16:16:02.472Z,13.70
2023-02-22T16:18:32.220Z,17.67
2023-02-22T16:21:12.988Z,10.05
2023-02-22T16:23:59.115Z,15.68
2023-02-22T16:26:37.239Z,15.93
2023-02-22T16:29:08.704Z,12.10
2023-02-22T16:31:39.100Z,12.98
2023-02-22T16:34:08.275Z,12.77
2023-02-22T16:36:46.884Z,14.75
2023-02-22T16:39:24.928Z,12.48
2023-02-22T16:45:58.693Z,16.42
2023-02-22T16:48:38.384Z,14.07
2023-02-22T16:51:21.909Z,19.95
2023-02-22T16:53:49.988Z,26.63
2023-02-22T16:56:20.999Z,34.17
2023-02-22T16:58:52.028Z,32.65
2023-02-22T17:01:23.706Z,37.58
2023-02-22T17:03:54.484Z,29.95
2023-02-22T17:06:23.652Z,34.97
2023-02-22T17:08:55.762Z,30.70
2023-02-22T17:11:25.413Z,38.75
2023-02-22T17:13:52.531Z,31.25
2023-02-22T17:16:20.299Z,42.00
2023-02-22T17:18:49.979Z,28.33
2023-02-22T17:21:17.256Z,29.45
2023-02-22T17:23:46.218Z,24.83
2023-02-22T17:26:15.775Z,25.33
2023-02-22T17:28:44.222Z,21.83
2023-02-22T17:31:24.144Z,23.55
2023-02-22T17:33:51.730Z,27.77
2023-02-22T17:36:19.132Z,19.25
2023-02-22T17:38:46.611Z,22.25
2023-02-22T17:41:13.733Z,19.67
2023-02-22T17:43:40.944Z,21.95
2023-02-22T17:46:09.054Z,30.33
2023-02-22T17:48:36.545Z,30.20
2023-02-22T17:51:09.101Z,29.02
2023-02-22T17:53:36.857Z,24.80
2023-02-22T17:56:08.777Z,25.40
2023-02-22T17:58:36.495Z,25.63
2023-02-22T18:01:04.795Z,25.42
2023-02-22T18:03:32.714Z,28.75
2023-02-22T18:06:01.573Z,21.35
2023-02-22T18:08:31.500Z,21.92
2023-02-22T18:10:59.088Z,22.20
2023-02-22T18:13:27.842Z,21.77
2023-02-22T18:16:00.358Z,18.15
2023-02-22T18:18:28.209Z,23.60
2023-02-22T18:20:59.997Z,28.10
2023-02-22T18:23:30.115Z,25.00
2023-02-22T18:26:10.083Z,24.88
2023-02-22T18:28:38.308Z,25.27
2023-02-22T18:31:15.209Z,26.65
2023-02-22T18:33:43.830Z,26.92
2023-02-22T18:36:11.896Z,21.92
2023-02-22T18:38:43.541Z,21.35
2023-02-22T18:41:13.338Z,26.02
2023-02-22T18:43:41.047Z,22.23
2023-02-22T18:46:20.201Z,29.95
2023-02-22T18:48:48.930Z,22.85
2023-02-22T18:51:17.649Z,20.60
2023-02-22T18:53:47.680Z,25.73
2023-02-22T18:56:22.628Z,27.75
2023-02-22T18:59:00.450Z,37.53
2023-02-22T19:01:28.290Z,35.47
2023-02-22T19:03:55.904Z,37.00
2023-02-22T19:06:23.657Z,34.92
2023-02-22T19:08:51.431Z,32.90
2023-02-22T19:11:22.096Z,30.30
2023-02-22T19:13:51.820Z,29.92
2023-02-22T19:16:22.127Z,30.15
2023-02-22T19:18:52.669Z,30.40
2023-02-22T19:21:21.293Z,33.92
2023-02-22T19:23:48.918Z,27.08
2023-02-22T19:26:24.634Z,25.80
2023-02-22T19:28:56.527Z,41.95
2023-02-22T19:31:29.905Z,40.20
2023-02-22T19:34:15.746Z,33.20
2023-02-22T19:36:48.211Z,27.00
2023-02-22T19:39:20.878Z,25.05
2023-02-22T19:41:48.216Z,23.65
2023-02-22T19:44:15.180Z,23.00
2023-02-22T19:46:42.451Z,21.45
2023-02-22T19:49:09.900Z,29.40
2023-02-22T19:51:37.808Z,32.15
2023-02-22T19:54:07.414Z,27.15
2023-02-22T19:56:35.756Z,24.35
2023-02-22T19:59:09.695Z,24.35
2023-02-22T20:01:37.261Z,24.30
2023-02-22T20:04:07.404Z,31.48
2023-02-22T20:06:40.616Z,25.38
2023-02-22T20:09:23.885Z,28.27
2023-02-22T20:11:52.461Z,26.52
2023-02-22T20:14:25.715Z,23.52
2023-02-22T20:16:54.457Z,26.40
2023-02-22T20:19:24.855Z,29.58
2023-02-22T20:21:56.055Z,21.30
2023-02-22T20:24:24.928Z,26.83
2023-02-22T20:26:56.015Z,26.02
2023-02-22T20:29:29.843Z,22.63
2023-02-22T20:31:58.903Z,28.08
2023-02-22T20:34:33.738Z,26.55
2023-02-22T20:37:01.590Z,31.80
2023-02-22T20:39:29.501Z,27.45
2023-02-22T20:41:57.222Z,28.42
2023-02-22T20:44:27.417Z,22.42
2023-02-22T20:46:54.625Z,27.55
2023-02-22T20:49:21.824Z,30.83
2023-02-22T20:51:49.576Z,23.52
2023-02-22T20:54:17.899Z,29.42
2023-02-22T20:56:47.179Z,28.13
2023-02-22T20:59:16.877Z,23.92
2023-02-22T21:01:44.295Z,30.98
2023-02-22T21:04:13.712Z,27.25
2023-02-22T21:06:45.772Z,28.85
2023-02-22T21:11:47.101Z,26.00
2023-02-22T21:14:18.979Z,27.73
2023-02-22T21:16:49.218Z,28.42
2023-02-22T21:19:28.469Z,23.88
2023-02-22T21:21:58.710Z,24.25
2023-02-22T21:24:28.146Z,24.02
2023-02-22T21:26:58.978Z,24.58
2023-02-22T21:29:28.949Z,29.73
2023-02-22T21:31:56.890Z,24.13
2023-02-22T21:34:26.665Z,28.33
2023-02-22T21:36:54.194Z,26.90
2023-02-22T21:39:24.546Z,29.45
2023-02-22T21:41:54.059Z,25.77
2023-02-22T21:44:23.584Z,26.10
2023-02-22T21:46:51.012Z,23.30
2023-02-22T21:49:23.590Z,25.50
2023-02-22T21:51:51.980Z,24.75
2023-02-22T21:54:19.134Z,28.17
2023-02-22T21:56:46.622Z,24.33
2023-02-22T21:59:22.778Z,26.83
2023-02-22T22:01:56.136Z,26.55
2023-02-22T22:04:28.237Z,26.65
2023-02-22T22:06:57.615Z,25.50
2023-02-22T22:09:29.179Z,26.25
2023-02-22T22:11:59.597Z,27.70
2023-02-22T22:14:27.974Z,22.52
2023-02-22T22:16:58.788Z,23.08
2023-02-22T22:19:28.377Z,23.33
2023-02-22T22:21:56.432Z,24.27
2023-02-22T22:24:24.061Z,25.08
2023-02-22T22:26:54.955Z,25.52
2023-02-22T22:29:24.615Z,31.15
2023-02-22T22:31:52.317Z,26.67
2023-02-22T22:34:19.649Z,24.13
2023-02-22T22:36:47.657Z,23.80
2023-02-22T22:39:14.804Z,23.88
2023-02-22T22:41:45.810Z,23.25
2023-02-22T22:44:15.586Z,23.08
2023-02-22T22:46:44.063Z,20.25
2023-02-22T22:49:13.758Z,18.73
2023-02-22T22:51:42.928Z,24.00
2023-02-22T22:54:10.935Z,23.25
2023-02-22T22:56:38.938Z,20.40
2023-02-22T22:59:08.451Z,23.85
2023-02-22T23:01:44.742Z,23.33
2023-02-22T23:04:16.653Z,19.42
2023-02-22T23:06:48.286Z,22.23
2023-02-22T23:09:18.982Z,25.90
2023-02-22T23:11:53.509Z,21.92
2023-02-22T23:14:31.973Z,23.00
2023-02-22T23:17:03.774Z,24.23
2023-02-22T23:19:36.471Z,25.05
2023-02-22T23:22:05.667Z,24.92
2023-02-22T23:24:37.815Z,23.15
2023-02-22T23:27:11.088Z,24.33
2023-02-22T23:29:41.342Z,25.95
2023-02-22T23:32:09.556Z,24.83
2023-02-22T23:34:41.286Z,25.77
2023-02-22T23:37:10.958Z,26.95
2023-02-22T23:39:38.673Z,27.90
2023-02-22T23:42:08.922Z,22.65
2023-02-22T23:44:36.137Z,24.73
2023-02-22T23:47:04.053Z,24.27
2023-02-22T23:49:38.583Z,28.75
2023-02-22T23:52:08.214Z,26.00
2023-02-22T23:54:40.558Z,23.77
2023-02-22T23:57:09.060Z,27.63
2023-02-22T23:59:40.593Z,27.73
